createdAt,value
2023-05-03T00:00:19.682Z,6.4
2023-05-03T00:02:47.941Z,6.4
2023-05-03T00:05:16.189Z,6.3
2023-05-03T00:07:44.447Z,6.3
2023-05-03T00:10:12.712Z,6.3
2023-05-03T00:12:40.964Z,6.2
2023-05-03T00:15:09.223Z,5.9
2023-05-03T00:17:37.479Z,5.8
2023-05-03T00:20:05.734Z,5.9
2023-05-03T00:22:33.989Z,6
2023-05-03T00:25:02.266Z,5.9
2023-05-03T00:29:58.782Z,5.8
2023-05-03T00:32:27.040Z,5.9
2023-05-03T00:34:55.299Z,6
2023-05-03T00:37:23.555Z,5.9
2023-05-03T00:39:51.813Z,5.9
2023-05-03T00:42:20.069Z,5.9
2023-05-03T00:44:48.331Z,5.9
2023-05-03T00:47:16.579Z,5.8
2023-05-03T00:48:31.313Z,5.6
2023-05-03T00:49:44.857Z,5.6
2023-05-03T00:52:13.119Z,5.6
2023-05-03T00:54:41.375Z,5.7
2023-05-03T00:57:09.627Z,5.7
2023-05-03T01:02:06.145Z,5.6
2023-05-03T01:04:34.399Z,5.6
2023-05-03T01:07:02.654Z,5.7
2023-05-03T01:09:30.919Z,5.7
2023-05-03T01:11:59.171Z,5.7
2023-05-03T01:13:13.902Z,5.6
2023-05-03T01:14:27.450Z,5.5
2023-05-03T01:16:55.707Z,5.4
2023-05-03T01:19:23.963Z,5.5
2023-05-03T01:21:52.214Z,5.5
2023-05-03T01:24:20.475Z,5.6
2023-05-03T01:26:48.735Z,5.6
2023-05-03T01:29:16.985Z,5.6
2023-05-03T01:34:13.504Z,5.6
2023-05-03T01:36:41.757Z,5.2
2023-05-03T01:37:56.487Z,5.1
2023-05-03T01:39:10.035Z,5
2023-05-03T01:41:38.296Z,5
2023-05-03T01:44:06.551Z,5.1
2023-05-03T01:46:34.804Z,5.1
2023-05-03T01:49:03.059Z,5.3
2023-05-03T01:51:31.322Z,5.2
2023-05-03T01:53:59.578Z,5.1
2023-05-03T01:56:27.829Z,5.2
2023-05-03T01:58:56.088Z,5.2
2023-05-03T02:01:24.352Z,5.1
2023-05-03T02:03:52.610Z,5.1
2023-05-03T02:06:20.861Z,5.2
2023-05-03T02:08:49.124Z,5.2
2023-05-03T02:11:17.372Z,5.1
2023-05-03T02:13:45.638Z,5.1
2023-05-03T02:16:13.894Z,5.1
2023-05-03T02:18:42.147Z,5.1
2023-05-03T02:21:10.399Z,5.1
2023-05-03T02:23:38.656Z,5
2023-05-03T02:26:06.918Z,5
2023-05-03T02:27:21.662Z,5.1
2023-05-03T02:28:35.216Z,5.2
2023-05-03T02:31:03.464Z,5.2
2023-05-03T02:35:59.983Z,5.1
2023-05-03T02:38:28.239Z,5
2023-05-03T02:40:56.494Z,4.7
2023-05-03T02:43:24.752Z,4.9
2023-05-03T02:45:53.009Z,5.1
2023-05-03T02:48:21.263Z,5.2
2023-05-03T02:50:49.521Z,4.9
2023-05-03T02:52:04.249Z,4.9
2023-05-03T02:53:17.802Z,4.9
2023-05-03T02:55:46.057Z,4.9
2023-05-03T02:58:14.313Z,5
2023-05-03T03:00:42.572Z,5
2023-05-03T03:03:10.831Z,5.1
2023-05-03T03:08:07.365Z,5
2023-05-03T03:10:35.601Z,4.5
2023-05-03T03:13:03.855Z,4.7
2023-05-03T03:15:32.115Z,4.9
2023-05-03T03:16:46.836Z,5
2023-05-03T03:18:00.383Z,5
2023-05-03T03:20:28.640Z,5.1
2023-05-03T03:22:56.906Z,5.2
2023-05-03T03:25:25.157Z,5.1
2023-05-03T03:27:53.413Z,5
2023-05-03T03:30:21.673Z,5
2023-05-03T03:32:49.927Z,5.1
2023-05-03T03:35:18.183Z,5
2023-05-03T03:40:14.703Z,5
2023-05-03T03:41:29.426Z,5.2
2023-05-03T03:42:42.979Z,5.3
2023-05-03T03:45:11.229Z,5.2
2023-05-03T03:47:39.489Z,5.1
2023-05-03T03:50:07.747Z,4.9
2023-05-03T03:52:35.999Z,4.9
2023-05-03T03:55:04.257Z,5.2
2023-05-03T03:57:32.513Z,5.2
2023-05-03T04:00:00.770Z,5.2
2023-05-03T04:02:29.032Z,5.1
2023-05-03T04:04:57.292Z,5.2
2023-05-03T04:06:12.014Z,5.4
2023-05-03T04:09:54.051Z,5.5
2023-05-03T04:12:22.312Z,5.6
2023-05-03T04:14:50.562Z,5.5
2023-05-03T04:17:18.824Z,5.6
2023-05-03T04:19:47.075Z,5.7
2023-05-03T04:22:15.332Z,5.8
2023-05-03T04:24:43.591Z,5.5
2023-05-03T04:27:11.847Z,5.6
2023-05-03T04:29:40.103Z,5.7
2023-05-03T04:30:54.837Z,5.7
2023-05-03T04:32:08.388Z,5.7
2023-05-03T04:34:36.636Z,5.7
2023-05-03T04:37:04.897Z,5.6
2023-05-03T04:42:01.411Z,5.8
2023-05-03T04:44:29.667Z,6
2023-05-03T04:46:57.925Z,6.1
2023-05-03T04:49:26.180Z,6.4
2023-05-03T04:51:54.442Z,6.6
2023-05-03T04:54:22.699Z,6.9
2023-05-03T04:55:37.424Z,7.3
2023-05-03T04:56:50.978Z,6.9
2023-05-03T04:59:19.231Z,6.7
2023-05-03T05:01:47.488Z,6.4
2023-05-03T05:04:15.748Z,6.9
2023-05-03T05:06:44.006Z,7.4
2023-05-03T05:09:12.266Z,7.4
2023-05-03T05:14:08.776Z,7
2023-05-03T05:16:37.038Z,7.4
2023-05-03T05:19:05.293Z,7.7
2023-05-03T05:20:20.021Z,7.8
2023-05-03T05:21:33.573Z,7.6
2023-05-03T05:24:01.823Z,7.7
2023-05-03T05:26:30.083Z,8
2023-05-03T05:28:58.343Z,8.3
2023-05-03T05:31:26.601Z,8.7
2023-05-03T05:33:54.859Z,8.2
2023-05-03T05:36:23.114Z,7.9
2023-05-03T05:38:51.369Z,8
2023-05-03T05:41:19.626Z,8.1
2023-05-03T05:45:02.614Z,8.1
2023-05-03T05:46:16.155Z,7.9
2023-05-03T05:48:44.416Z,8
2023-05-03T05:51:12.670Z,8.6
2023-05-03T05:53:40.927Z,8.5
2023-05-03T05:56:09.185Z,8.4
2023-05-03T05:58:37.445Z,8.4
2023-05-03T06:01:05.703Z,9.1
2023-05-03T06:03:33.957Z,9.3
2023-05-03T06:06:02.215Z,10
2023-05-03T06:08:30.477Z,9.4
2023-05-03T06:09:45.207Z,9.1
2023-05-03T06:10:58.753Z,9
2023-05-03T06:15:55.269Z,8.7
2023-05-03T06:18:23.525Z,9.3
2023-05-03T06:20:51.775Z,9.2
2023-05-03T06:23:20.039Z,9.5
2023-05-03T06:25:48.289Z,9.4
2023-05-03T06:28:16.552Z,9.4
2023-05-03T06:30:44.807Z,9.5
2023-05-03T06:33:13.065Z,9.5
2023-05-03T06:34:27.797Z,8.9
2023-05-03T06:35:41.341Z,9.2
2023-05-03T06:38:09.601Z,9.4
2023-05-03T06:40:37.850Z,9.8
2023-05-03T06:43:06.110Z,9.3
2023-05-03T06:48:02.629Z,9.2
2023-05-03T06:50:30.883Z,9.3
2023-05-03T06:52:59.141Z,9.9
2023-05-03T06:55:27.397Z,10.3
2023-05-03T06:57:55.647Z,10.5
2023-05-03T06:59:10.383Z,10.2
2023-05-03T07:00:23.928Z,10
2023-05-03T07:02:52.186Z,9.9
2023-05-03T07:05:20.438Z,10.3
2023-05-03T07:07:48.700Z,10.6
2023-05-03T07:10:16.954Z,10.9
2023-05-03T07:12:45.212Z,10.9
2023-05-03T07:15:13.468Z,10.2
2023-05-03T07:20:09.975Z,10
2023-05-03T07:22:38.235Z,10.2
2023-05-03T07:23:52.965Z,10.2
2023-05-03T07:25:06.508Z,10.2
2023-05-03T07:27:34.766Z,10.3
2023-05-03T07:30:03.027Z,10.4
2023-05-03T07:32:31.281Z,10.6
2023-05-03T07:34:59.545Z,10.7
2023-05-03T07:37:27.793Z,10.6
2023-05-03T07:39:56.050Z,10.6
2023-05-03T07:42:24.312Z,10.5
2023-05-03T07:44:52.562Z,10.8
2023-05-03T07:47:20.822Z,10.9
2023-05-03T07:49:49.082Z,10.9
2023-05-03T07:52:17.337Z,10.7
2023-05-03T07:54:45.591Z,11
2023-05-03T07:57:13.852Z,10.5
2023-05-03T07:59:42.111Z,10.4
2023-05-03T08:02:10.365Z,10.5
2023-05-03T08:04:38.625Z,10.5
2023-05-03T08:07:06.874Z,10.6
2023-05-03T08:09:35.134Z,10.6
2023-05-03T08:12:03.388Z,10.6
2023-05-03T08:13:18.140Z,10.8
2023-05-03T08:14:31.690Z,10.8
2023-05-03T08:16:59.940Z,10.8
2023-05-03T08:21:56.458Z,10.8
2023-05-03T08:24:24.712Z,10.5
2023-05-03T08:26:52.969Z,11
2023-05-03T08:29:21.223Z,11.2
2023-05-03T08:31:49.485Z,10.8
2023-05-03T08:34:17.742Z,10.7
2023-05-03T08:36:45.999Z,11.1
2023-05-03T08:38:00.727Z,11.1
2023-05-03T08:39:14.277Z,11
2023-05-03T08:41:42.525Z,10.9
2023-05-03T08:44:10.783Z,11
2023-05-03T08:46:39.039Z,11.1
2023-05-03T08:49:07.301Z,11.2
2023-05-03T08:54:03.813Z,11.3
2023-05-03T08:56:32.064Z,11.5
2023-05-03T08:59:00.326Z,11.3
2023-05-03T09:01:28.578Z,11.4
2023-05-03T09:02:43.313Z,11.5
2023-05-03T09:03:56.858Z,11.5
2023-05-03T09:06:25.117Z,11.4
2023-05-03T09:08:53.369Z,11.4
2023-05-03T09:11:21.623Z,11.4
2023-05-03T09:13:49.880Z,11.3
2023-05-03T09:16:18.140Z,11.5
2023-05-03T09:18:46.398Z,11.4
2023-05-03T09:21:14.656Z,11.1
2023-05-03T09:26:11.170Z,11
2023-05-03T09:27:25.897Z,11.3
2023-05-03T09:28:39.445Z,11.6
2023-05-03T09:31:07.699Z,11.7
2023-05-03T09:33:35.956Z,11.1
2023-05-03T09:36:04.215Z,10.7
2023-05-03T09:38:32.472Z,10.9
2023-05-03T09:41:00.722Z,11.3
2023-05-03T09:43:28.978Z,11.4
2023-05-03T09:45:57.240Z,11.2
2023-05-03T09:48:25.494Z,11.4
2023-05-03T09:50:53.754Z,11.6
2023-05-03T09:52:08.479Z,11.6
2023-05-03T09:55:50.519Z,11.7
2023-05-03T09:58:18.772Z,11.7
2023-05-03T10:00:47.031Z,11.4
2023-05-03T10:03:15.289Z,11.6
2023-05-03T10:05:43.542Z,11.7
2023-05-03T10:08:11.796Z,12
2023-05-03T10:10:40.054Z,12.1
2023-05-03T10:13:08.312Z,11.7
2023-05-03T10:15:36.571Z,11.7
2023-05-03T10:16:51.301Z,11.9
2023-05-03T10:18:04.847Z,12.2
2023-05-03T10:20:33.107Z,11.9
2023-05-03T10:23:01.363Z,11.6
2023-05-03T10:27:57.876Z,11.9
2023-05-03T10:30:26.128Z,10.6
2023-05-03T10:32:54.385Z,10.9
2023-05-03T10:35:22.644Z,11.2
2023-05-03T10:37:50.898Z,11.5
2023-05-03T10:40:19.155Z,11.7
2023-05-03T10:41:33.888Z,12
2023-05-03T10:42:47.433Z,12.2
2023-05-03T10:45:15.692Z,12.2
2023-05-03T10:47:43.949Z,12.4
2023-05-03T10:50:12.204Z,12.2
2023-05-03T10:52:40.465Z,12.4
2023-05-03T10:55:08.719Z,12.6
2023-05-03T11:00:05.235Z,11.8
2023-05-03T11:02:33.489Z,11.9
2023-05-03T11:05:01.753Z,12.1
2023-05-03T11:06:16.475Z,12.3
2023-05-03T11:07:30.028Z,12.5
2023-05-03T11:09:58.281Z,12.4
2023-05-03T11:12:26.539Z,12.4
2023-05-03T11:14:54.795Z,12.4
2023-05-03T11:17:23.055Z,12.7
2023-05-03T11:19:51.311Z,12.8
2023-05-03T11:22:19.563Z,12.9
2023-05-03T11:24:47.825Z,12.9
2023-05-03T11:27:16.081Z,12.4
2023-05-03T11:30:59.070Z,12.4
2023-05-03T11:32:12.618Z,12.6
2023-05-03T11:34:40.875Z,12.9
2023-05-03T11:37:09.129Z,13.2
2023-05-03T11:39:37.383Z,13.5
2023-05-03T11:42:05.639Z,13
2023-05-03T11:44:33.897Z,13
2023-05-03T11:47:02.155Z,13.2
2023-05-03T11:49:30.412Z,13.5
2023-05-03T11:51:58.667Z,13.7
2023-05-03T11:54:26.920Z,13.6
2023-05-03T11:55:41.653Z,13.2
2023-05-03T11:56:55.197Z,13
2023-05-03T12:01:51.710Z,13
2023-05-03T12:04:19.965Z,12.9
2023-05-03T12:06:48.227Z,12.4
2023-05-03T12:09:16.487Z,13
2023-05-03T12:11:44.740Z,13.4
2023-05-03T12:14:12.997Z,13.7
2023-05-03T12:16:41.248Z,14
2023-05-03T12:19:09.505Z,14.2
2023-05-03T12:20:24.235Z,14.1
2023-05-03T12:21:37.783Z,14
2023-05-03T12:24:06.041Z,13.9
2023-05-03T12:26:34.299Z,14
2023-05-03T12:29:02.557Z,13.6
2023-05-03T12:33:59.067Z,13.5
2023-05-03T12:36:27.325Z,13.7
2023-05-03T12:38:55.582Z,13.9
2023-05-03T12:41:23.841Z,13.7
2023-05-03T12:43:52.091Z,13.5
2023-05-03T12:45:06.822Z,13.4
2023-05-03T12:46:20.369Z,13.5
2023-05-03T12:48:48.626Z,13.7
2023-05-03T12:51:16.879Z,13.8
2023-05-03T12:53:45.139Z,13.9
2023-05-03T12:56:13.399Z,14.1
2023-05-03T12:58:41.657Z,14
2023-05-03T13:01:09.904Z,13.9
2023-05-03T13:06:06.417Z,13.9
2023-05-03T13:08:34.682Z,14.3
2023-05-03T13:09:49.410Z,14.1
2023-05-03T13:11:02.960Z,14.2
2023-05-03T13:13:31.215Z,13.9
2023-05-03T13:15:59.470Z,14
2023-05-03T13:18:27.728Z,13.7
2023-05-03T13:20:55.981Z,13.7
2023-05-03T13:23:24.233Z,14.2
2023-05-03T13:25:52.496Z,14.4
2023-05-03T13:28:20.750Z,14.3
2023-05-03T13:30:49.008Z,14.5
2023-05-03T13:33:17.261Z,13.6
2023-05-03T13:35:45.524Z,12.5
2023-05-03T13:38:13.779Z,13
2023-05-03T13:40:42.040Z,13.3
2023-05-03T13:43:10.294Z,13.1
2023-05-03T13:45:38.552Z,13.1
2023-05-03T13:48:06.800Z,12.8
2023-05-03T13:50:35.062Z,13.2
2023-05-03T13:53:03.322Z,13.5
2023-05-03T13:55:31.572Z,13.5
2023-05-03T13:57:59.826Z,13.5
2023-05-03T13:59:14.573Z,13.5
2023-05-03T14:00:28.121Z,13.6
2023-05-03T14:02:56.383Z,13.5
2023-05-03T14:07:52.895Z,13.5
2023-05-03T14:10:21.151Z,13.7
2023-05-03T14:12:49.409Z,14
2023-05-03T14:15:17.665Z,14.2
2023-05-03T14:17:45.923Z,14
2023-05-03T14:20:14.171Z,14.2
2023-05-03T14:22:42.431Z,14.1
2023-05-03T14:23:57.165Z,14.2
2023-05-03T14:25:10.709Z,14.4
2023-05-03T14:27:38.961Z,14.3
2023-05-03T14:30:07.220Z,14.3
2023-05-03T14:32:35.476Z,14.3
2023-05-03T14:35:03.734Z,14.7
2023-05-03T14:40:00.243Z,15
2023-05-03T14:42:28.506Z,15.2
2023-05-03T14:44:56.762Z,15.1
2023-05-03T14:47:25.018Z,15.2
2023-05-03T14:48:39.750Z,15.1
2023-05-03T14:49:53.289Z,15
2023-05-03T14:52:21.546Z,15.1
2023-05-03T14:54:49.803Z,15.1
2023-05-03T14:57:18.062Z,15.2
2023-05-03T14:59:46.316Z,15.2
2023-05-03T15:02:14.580Z,15
2023-05-03T15:04:42.829Z,15.2
2023-05-03T15:07:11.092Z,14.9
2023-05-03T15:12:07.597Z,14.8
2023-05-03T15:13:22.331Z,15.1
2023-05-03T15:14:35.878Z,15.2
2023-05-03T15:17:04.140Z,15.3
2023-05-03T15:19:32.396Z,15.2
2023-05-03T15:22:00.647Z,15.2
2023-05-03T15:24:28.905Z,15
2023-05-03T15:26:57.169Z,14.6
2023-05-03T15:29:25.420Z,13.5
2023-05-03T15:31:53.674Z,13.4
2023-05-03T15:34:21.932Z,14
2023-05-03T15:36:50.190Z,14.6
2023-05-03T15:38:04.916Z,14.8
2023-05-03T15:41:46.951Z,14.7
2023-05-03T15:44:15.214Z,14.5
2023-05-03T15:46:43.464Z,14.3
2023-05-03T15:49:11.720Z,13.6
2023-05-03T15:51:39.985Z,13.5
2023-05-03T15:54:08.241Z,13.6
2023-05-03T15:56:36.489Z,13.1
2023-05-03T15:59:04.747Z,13.4
2023-05-03T16:01:33.003Z,13.7
2023-05-03T16:02:47.734Z,14.1
2023-05-03T16:04:01.281Z,14.3
2023-05-03T16:06:29.538Z,14.3
2023-05-03T16:08:57.800Z,14.3
2023-05-03T16:13:54.306Z,14.3
2023-05-03T16:16:22.563Z,14.4
2023-05-03T16:18:50.821Z,14.3
2023-05-03T16:21:19.074Z,14.1
2023-05-03T16:23:47.337Z,14.1
2023-05-03T16:26:15.592Z,14.3
2023-05-03T16:27:30.319Z,14.4
2023-05-03T16:28:43.870Z,14.3
2023-05-03T16:31:12.125Z,14.3
2023-05-03T16:33:40.382Z,14.3
2023-05-03T16:36:08.638Z,14.2
2023-05-03T16:38:36.890Z,13.8
2023-05-03T16:41:05.147Z,13.7
2023-05-03T16:46:01.658Z,13.9
2023-05-03T16:48:29.920Z,14
2023-05-03T16:50:58.171Z,14.1
2023-05-03T16:52:12.903Z,14
2023-05-03T16:53:26.453Z,14
2023-05-03T16:55:54.707Z,14
2023-05-03T16:58:22.971Z,14
2023-05-03T17:00:51.223Z,13.7
2023-05-03T17:03:19.484Z,14
2023-05-03T17:05:47.735Z,13.6
2023-05-03T17:08:15.993Z,13.7
2023-05-03T17:10:44.252Z,13.7
2023-05-03T17:13:12.510Z,13.6
2023-05-03T17:16:55.494Z,13.7
2023-05-03T17:18:09.045Z,13.6
2023-05-03T17:20:37.294Z,13.6
2023-05-03T17:23:05.559Z,13.6
2023-05-03T17:25:33.818Z,13.5
2023-05-03T17:28:02.073Z,13.5
2023-05-03T17:30:30.324Z,13.4
2023-05-03T17:32:58.579Z,13.4
2023-05-03T17:35:26.843Z,13.4
2023-05-03T17:37:55.101Z,13.4
2023-05-03T17:40:23.354Z,13.3
2023-05-03T17:41:38.088Z,13.2
2023-05-03T17:42:51.636Z,13.1
2023-05-03T17:47:48.150Z,13.1
2023-05-03T17:50:16.400Z,12.9
2023-05-03T17:52:44.656Z,12.8
2023-05-03T17:55:12.914Z,12.8
2023-05-03T17:57:41.175Z,12.6
2023-05-03T18:00:09.433Z,12.5
2023-05-03T18:02:37.686Z,12.5
2023-05-03T18:05:05.947Z,12.6
2023-05-03T18:06:20.675Z,12.7
2023-05-03T18:07:34.218Z,12.7
2023-05-03T18:10:02.478Z,12.6
2023-05-03T18:12:30.735Z,12.6
2023-05-03T18:14:58.995Z,12.6
2023-05-03T18:19:55.501Z,12.5
2023-05-03T18:22:23.765Z,12.4
2023-05-03T18:24:52.014Z,12.3
2023-05-03T18:27:20.274Z,12.3
2023-05-03T18:29:48.528Z,12.3
2023-05-03T18:31:03.257Z,12.3
2023-05-03T18:32:16.805Z,12.3
2023-05-03T18:34:45.064Z,12.3
2023-05-03T18:37:13.315Z,12.2
2023-05-03T18:39:41.574Z,12
2023-05-03T18:42:09.830Z,11.9
2023-05-03T18:44:38.088Z,11.9
2023-05-03T18:47:06.346Z,11.7
2023-05-03T18:52:02.856Z,11.7
2023-05-03T18:54:31.118Z,11.7
2023-05-03T18:55:45.844Z,11.6
2023-05-03T18:56:59.390Z,11.6
2023-05-03T18:59:27.647Z,11.5
2023-05-03T19:01:55.899Z,11.4
2023-05-03T19:04:24.166Z,11.1
2023-05-03T19:06:52.418Z,11.1
2023-05-03T19:09:20.673Z,11.1
2023-05-03T19:11:48.927Z,11
2023-05-03T19:14:17.186Z,10.7
2023-05-03T19:16:45.446Z,10.5
2023-05-03T19:19:13.706Z,10.2
2023-05-03T19:21:41.962Z,9.9
2023-05-03T19:24:10.218Z,9.7
2023-05-03T19:26:38.472Z,9.7
2023-05-03T19:29:06.732Z,9.5
2023-05-03T19:31:34.992Z,9.4
2023-05-03T19:34:03.246Z,9.4
2023-05-03T19:36:31.506Z,9.4
2023-05-03T19:38:59.762Z,9.5
2023-05-03T19:41:28.015Z,9.4
2023-05-03T19:43:56.276Z,9.6
2023-05-03T19:45:11.015Z,9.8
2023-05-03T19:46:24.565Z,9.8
2023-05-03T19:48:52.823Z,9.6
2023-05-03T19:53:49.341Z,9.4
2023-05-03T19:56:17.596Z,9.6
2023-05-03T19:58:45.854Z,9.6
2023-05-03T20:01:14.106Z,9.6
2023-05-03T20:03:42.370Z,9.5
2023-05-03T20:06:10.621Z,9.5
2023-05-03T20:08:38.880Z,9.6
2023-05-03T20:09:53.609Z,9.5
2023-05-03T20:11:07.158Z,9.2
2023-05-03T20:13:35.414Z,9.1
2023-05-03T20:16:03.669Z,9.1
2023-05-03T20:18:31.926Z,9.1
2023-05-03T20:21:00.180Z,9.2
2023-05-03T20:25:56.703Z,9.1
2023-05-03T20:28:24.960Z,9.3
2023-05-03T20:30:53.213Z,9.4
2023-05-03T20:33:21.475Z,8.9
2023-05-03T20:34:36.205Z,8.7
2023-05-03T20:35:49.743Z,8.8
2023-05-03T20:38:18.000Z,8.9
2023-05-03T20:40:46.259Z,8.9
2023-05-03T20:43:14.522Z,8.6
2023-05-03T20:45:42.776Z,8.6
2023-05-03T20:48:11.030Z,8.4
2023-05-03T20:50:39.286Z,8.3
2023-05-03T20:53:07.550Z,8.4
2023-05-03T20:58:04.060Z,8.7
2023-05-03T20:59:18.791Z,8.4
2023-05-03T21:00:32.344Z,7.7
2023-05-03T21:03:00.595Z,7.8
2023-05-03T21:05:28.857Z,7.9
2023-05-03T21:07:57.105Z,8
2023-05-03T21:10:25.415Z,7.8
2023-05-03T21:12:53.623Z,7.9
2023-05-03T21:15:21.877Z,8
2023-05-03T21:17:50.134Z,8.2
2023-05-03T21:20:18.398Z,8.3
2023-05-03T21:22:46.645Z,8.3
2023-05-03T21:24:01.377Z,8.4
2023-05-03T21:27:43.412Z,8.4
2023-05-03T21:30:11.671Z,8.2
2023-05-03T21:32:39.928Z,8.3
2023-05-03T21:35:08.185Z,8.3
2023-05-03T21:37:36.441Z,8.1
2023-05-03T21:40:04.697Z,8.1
2023-05-03T21:42:32.951Z,8.1
2023-05-03T21:45:01.213Z,7.8
2023-05-03T21:47:29.471Z,7.6
2023-05-03T21:48:44.199Z,7.6
2023-05-03T21:49:57.746Z,7.7
2023-05-03T21:52:26.002Z,7.8
2023-05-03T21:54:54.254Z,7.8
2023-05-03T21:59:50.773Z,7.8
2023-05-03T22:02:19.025Z,8
2023-05-03T22:04:47.287Z,8.1
2023-05-03T22:07:15.544Z,7.9
2023-05-03T22:09:43.797Z,8
2023-05-03T22:12:12.054Z,7.8
2023-05-03T22:13:26.784Z,7.8
2023-05-03T22:14:40.332Z,7.8
2023-05-03T22:17:08.584Z,7.9
2023-05-03T22:19:36.845Z,7.9
2023-05-03T22:22:05.099Z,7.9
2023-05-03T22:24:33.355Z,7.9
2023-05-03T22:27:01.613Z,7.8
2023-05-03T22:31:58.129Z,7.6
2023-05-03T22:34:26.381Z,7.2
2023-05-03T22:36:54.639Z,7.3
2023-05-03T22:38:09.375Z,7.4
2023-05-03T22:39:22.919Z,7.4
2023-05-03T22:41:51.173Z,7.3
2023-05-03T22:44:19.429Z,7.2
2023-05-03T22:46:47.685Z,7.2
2023-05-03T22:49:15.943Z,7
2023-05-03T22:51:44.201Z,7.2
2023-05-03T22:54:12.454Z,7.2
2023-05-03T22:56:40.719Z,7.1
2023-05-03T22:59:08.971Z,6.6
2023-05-03T23:02:51.955Z,6.6
2023-05-03T23:04:05.507Z,6.7
2023-05-03T23:06:33.767Z,6.7
2023-05-03T23:09:02.019Z,6.7
2023-05-03T23:11:30.275Z,6.8
2023-05-03T23:13:58.537Z,6.8
2023-05-03T23:16:26.790Z,6.8
2023-05-03T23:18:55.050Z,6.7
2023-05-03T23:21:23.304Z,6.8
2023-05-03T23:23:51.565Z,6.8
2023-05-03T23:26:19.817Z,6.8
2023-05-03T23:27:34.553Z,6.7
2023-05-03T23:28:48.092Z,6.8
2023-05-03T23:33:44.607Z,6.7
2023-05-03T23:36:12.872Z,6.7
2023-05-03T23:38:41.123Z,6.7
2023-05-03T23:43:37.640Z,6.6
2023-05-03T23:46:05.894Z,6.6
2023-05-03T23:48:34.157Z,6.6
2023-05-03T23:51:02.409Z,6.5
2023-05-03T23:52:17.138Z,6.3
2023-05-03T23:53:30.690Z,5.9
2023-05-03T23:55:58.946Z,5.6
2023-05-03T23:58:27.206Z,5.2
